»·PEaware :: N899M KLAS-KLAX

N899M :: KLAS-KLAX

FLIGHT INFORMATION

Flight Status: Arrived
Operator: Privately registered:
United States
More flights under this callsign
Pilot: Robert C. (30425)
Aircraft: Unknown
(EPIC)
More flights by this aircraft type
Origin: KLAS McCarran Intl
United States
Destination: KLAX Los Angeles Intl
United States
More flights between these airports :: More routes between these airports
Route: +V538 GFS V8 HEC V12 PMD KIMMO3
File this flight plan on PilotEdge
Remarks:
Altitude:
(Current/Filed)
10,000ft
Speed:
(Current/Filed)
300kts
Departed: 24-Nov-20 07:41 PM
Arrived: 24-Nov-20 08:47 PM
Distance/Time
Traveled:
205nm/1:06
Distance/Time
To Go:
Arrived

Flight Plot

Page will automatically refresh every two minutes.

Flight plan parsing failed; only flown route is shown


Map Options




Map Legend


Flown Route
Filed Route
Departure Airport
Arrival Airport
Navaid (VOR, NDB)
Fix

Horizontal Profiles

Position Reports

Time Latitude Longitude Heading Altitude Ground
Speed
24-Nov-20 18:58 36.098630 -115.161153 115 2100ft 0kts
24-Nov-20 19:03 36.080623 -115.172108 89 2172ft 0kts
24-Nov-20 19:04 36.080623 -115.172108 89 2172ft 0kts
24-Nov-20 19:05 36.080623 -115.172108 89 2172ft 0kts
24-Nov-20 19:06 36.080623 -115.172108 89 2172ft 0kts
24-Nov-20 19:07 36.080623 -115.172108 89 2172ft 0kts
24-Nov-20 19:08 36.080623 -115.172108 89 2172ft 0kts
24-Nov-20 19:09 36.080623 -115.172108 89 2172ft 0kts
24-Nov-20 19:10 36.080623 -115.172108 89 2172ft 0kts
24-Nov-20 19:11 36.080623 -115.172108 89 2172ft 0kts
24-Nov-20 19:12 36.080623 -115.172108 89 2172ft 0kts
24-Nov-20 19:13 36.080623 -115.172108 89 2172ft 0kts
24-Nov-20 19:14 36.080623 -115.172108 89 2172ft 0kts
24-Nov-20 19:15 36.080623 -115.172108 89 2172ft 0kts
24-Nov-20 19:16 36.080623 -115.172108 89 2172ft 0kts
24-Nov-20 19:17 36.080623 -115.172108 89 2172ft 0kts
24-Nov-20 19:18 36.080623 -115.172108 89 2172ft 0kts
24-Nov-20 19:19 36.080623 -115.172108 89 2172ft 0kts
24-Nov-20 19:20 36.080623 -115.172108 89 2172ft 0kts
24-Nov-20 19:21 36.080623 -115.172108 89 2172ft 0kts
24-Nov-20 19:22 36.080623 -115.172108 89 2172ft 0kts
24-Nov-20 19:23 36.080623 -115.172108 89 2172ft 0kts
24-Nov-20 19:24 36.080623 -115.172108 89 2172ft 0kts
24-Nov-20 19:25 36.080623 -115.172108 89 2172ft 0kts
24-Nov-20 19:26 36.080623 -115.172108 89 2172ft 0kts
24-Nov-20 19:27 36.080623 -115.172108 89 2172ft 0kts
24-Nov-20 19:28 36.080623 -115.172108 89 2172ft 0kts
24-Nov-20 19:29 36.080623 -115.172108 89 2172ft 0kts
24-Nov-20 19:30 36.080652 -115.172010 47 2172ft 2kts
24-Nov-20 19:31 36.081495 -115.171474 67 2169ft 5kts
24-Nov-20 19:32 36.081483 -115.169659 87 2165ft 5kts
24-Nov-20 19:33 36.082697 -115.168687 27 2161ft 5kts
24-Nov-20 19:34 36.085198 -115.167126 23 2150ft 14kts
24-Nov-20 19:35 36.089434 -115.164726 24 2133ft 18kts
24-Nov-20 19:36 36.094682 -115.161736 24 2107ft 21kts
24-Nov-20 19:37 36.099561 -115.158689 53 2089ft 7kts
24-Nov-20 19:38 36.099869 -115.157565 86 2085ft 0kts
24-Nov-20 19:39 36.099866 -115.157434 95 2085ft 5kts
24-Nov-20 19:40 36.088027 -115.163072 206 2264ft 143kts
24-Nov-20 19:41 36.044296 -115.183962 201 3448ft 182kts
24-Nov-20 19:42 35.991255 -115.208569 201 5090ft 231kts
24-Nov-20 19:43 35.927365 -115.237613 201 6909ft 254kts
24-Nov-20 19:44 35.858446 -115.240520 146 8742ft 273kts
24-Nov-20 19:45 35.795138 -115.184152 143 10018ft 300kts
24-Nov-20 19:46 35.715379 -115.161507 186 10019ft 315kts
24-Nov-20 19:47 35.629566 -115.165701 182 10015ft 304kts
24-Nov-20 19:48 35.545804 -115.167537 182 10052ft 300kts
24-Nov-20 19:49 35.462435 -115.169304 182 10051ft 300kts
24-Nov-20 19:50 35.378901 -115.171085 182 10049ft 300kts
24-Nov-20 19:51 35.295322 -115.172894 182 10036ft 301kts
24-Nov-20 19:52 35.211055 -115.175390 182 10015ft 304kts
24-Nov-20 19:53 35.132529 -115.196827 235 10005ft 296kts
24-Nov-20 19:54 35.102752 -115.288457 254 10010ft 291kts
24-Nov-20 19:55 35.078606 -115.382773 255 10011ft 290kts
24-Nov-20 19:56 35.054544 -115.476776 255 10013ft 289kts
24-Nov-20 19:58 35.030478 -115.570490 255 10040ft 288kts
24-Nov-20 19:59 35.006374 -115.664017 254 10037ft 288kts
24-Nov-20 20:00 34.982295 -115.757099 254 10037ft 288kts
24-Nov-20 20:01 34.958058 -115.850482 254 10028ft 289kts
24-Nov-20 20:02 34.933772 -115.943719 254 10027ft 288kts
24-Nov-20 20:03 34.909341 -116.037183 254 10036ft 289kts
24-Nov-20 20:04 34.884833 -116.130606 254 10050ft 290kts
24-Nov-20 20:05 34.860215 -116.224123 254 10041ft 290kts
24-Nov-20 20:06 34.835418 -116.317996 254 10020ft 292kts
24-Nov-20 20:07 34.810393 -116.412396 254 9999ft 293kts
24-Nov-20 20:08 34.792649 -116.508810 265 9998ft 291kts
24-Nov-20 20:09 34.782983 -116.606826 265 9998ft 291kts
24-Nov-20 20:10 34.773355 -116.704891 264 9999ft 292kts
24-Nov-20 20:11 34.763607 -116.803351 264 9999ft 292kts
24-Nov-20 20:12 34.753836 -116.901322 264 9999ft 292kts
24-Nov-20 20:12 34.745670 -116.982688 264 9999ft 291kts
24-Nov-20 20:14 34.734117 -117.096512 263 10007ft 290kts
24-Nov-20 20:14 34.725720 -117.178105 263 10008ft 291kts
24-Nov-20 20:16 34.713919 -117.292028 263 10007ft 291kts
24-Nov-20 20:16 34.705398 -117.373617 263 10004ft 292kts
24-Nov-20 20:18 34.693452 -117.487820 263 9996ft 292kts
24-Nov-20 20:18 34.684859 -117.569329 263 9992ft 292kts
24-Nov-20 20:19 34.674464 -117.667210 262 9992ft 291kts
24-Nov-20 20:20 34.663996 -117.765011 262 9997ft 291kts
24-Nov-20 20:21 34.653432 -117.862653 262 10003ft 291kts
24-Nov-20 20:22 34.642802 -117.960079 262 10006ft 291kts
24-Nov-20 20:23 34.631563 -118.057032 253 10001ft 291kts
24-Nov-20 20:24 34.586312 -118.136123 233 9516ft 271kts
24-Nov-20 20:25 34.542812 -118.205693 233 8493ft 249kts
24-Nov-20 20:26 34.502834 -118.269549 233 8046ft 221kts
24-Nov-20 20:27 34.466823 -118.326981 233 8042ft 211kts
24-Nov-20 20:28 34.431407 -118.383380 233 8033ft 209kts
24-Nov-20 20:29 34.382894 -118.400882 156 8029ft 208kts
24-Nov-20 20:30 34.330966 -118.371103 154 8012ft 206kts
24-Nov-20 20:31 34.280841 -118.341970 154 8001ft 185kts
24-Nov-20 20:32 34.237082 -118.316558 154 7245ft 168kts
24-Nov-20 20:33 34.200715 -118.295299 154 6987ft 136kts
24-Nov-20 20:34 34.155831 -118.268585 145 6983ft 202kts
24-Nov-20 20:35 34.114735 -118.229577 141 5991ft 167kts
24-Nov-20 20:36 34.078571 -118.194406 141 4530ft 173kts
24-Nov-20 20:37 34.041126 -118.157914 141 3023ft 167kts
24-Nov-20 20:38 34.006155 -118.128125 180 2463ft 134kts
24-Nov-20 20:39 33.978970 -118.159231 231 2492ft 155kts
24-Nov-20 20:40 33.956616 -118.203049 257 2488ft 155kts
24-Nov-20 20:41 33.950320 -118.255284 263 2198ft 163kts
24-Nov-20 20:42 33.946131 -118.296545 263 1560ft 99kts
24-Nov-20 20:43 33.942689 -118.330393 263 1001ft 103kts
24-Nov-20 20:44 33.939282 -118.363774 262 447ft 92kts
24-Nov-20 20:45 33.936547 -118.390134 264 104ft 41kts
24-Nov-20 20:46 33.935237 -118.393701 177 106ft 0kts
24-Nov-20 20:47 33.935056 -118.393729 193 106ft 2kts
24-Nov-20 20:48 33.934010 -118.394347 224 106ft 5kts
24-Nov-20 20:49 33.933751 -118.395133 284 107ft 0kts
24-Nov-20 20:50 33.933751 -118.395133 284 107ft 0kts
24-Nov-20 20:51 33.933751 -118.395133 284 107ft 0kts
24-Nov-20 20:52 33.933751 -118.395133 284 107ft 0kts

Navigation Log

Ident Type
Flight plan parsing failed, navigation log unavailable